Rockport, WA

8:36 AM PDT on July 30, 2016 (GMT -0700)
Challenger Ridge | | Change Station

Elev 335 ft 48.54 °N, 121.80 °W | Updated 18 seconds ago

Clear
Clear
66.6 °F
Feels Like 66.6 °F
N
0.0
Wind Variable Wind from South

Today
High -- | Low -- °F
--% Chance of Precip.
Yesterday
High -- | Low -- °F
Precip. -- in
Pressure 29.95 in
Visibility 10.0 miles
Clouds Clear
Dew Point 58 °F
Humidity 74%
Rainfall 0.00 in
Snow Depth Not available.
5:38 AM 8:45 PM
Waning Crescent, 12% visible
METAR KAWO 301515Z AUTO 17007KT 10SM CLR 17/10 A2995 RMK AO1
Pressure 29.95 in
Visibility 10.0 miles
Clouds Clear
Dew Point 58 °F
Humidity 74%
Rainfall 0.00 in
Snow Depth Not available.
5:38 AM 8:45 PM
Waning Crescent, 12% visible
METAR KAWO 301515Z AUTO 17007KT 10SM CLR 17/10 A2995 RMK AO1

10-Day Weather Forecast

Almanac

Astronomy

Jul. 30, 2016 Rise Set
Actual Time
Civil Twilight
Nautical Twilight
Astronomical Twilight
Moon
Length of Visible Light
Length of Day
Tomorrow will be .
, % of the Moon is Illuminated

Today's Extremes

State Highs State Lows

Community

WunderPhotos

Upload Photos

1,928,587 photos uploaded!

WunderBlog® & News

Nearby

Air Quality

  Air Quality AQ Index Pollutant
Not available.

Snow Depth

Station Depth Elevation

Earthquake Activity

City Distance Mag. Time & Date
Minimum magnitude displayed is 2.5.

Coastal Water Temperatures

Place Temperature

Stations

Nearby Weather Stations

Station Location Temp. Windchill Dew Point Humidity Wind Precip. Elev Updated Type
                   

Watches & Warnings

There are currently no watches in effect.